Aérodrome :
LOGIN :

S'inscrire | Disclaimer

   EN    FR    IT 

 










Légende :    VFR   VFR Marginal   IFR   IFR Intensif   IFR Très Intensif
Visi : 
Plafond : 
>= 8 km
>= 3000ft
5 à 8 km
1000 à 3000 ft
1500m à 5 km
500 à 1000 ft
800 à 1500m
200 à 500 ft
< 800m
< 200 ft
Symboles :   Orages  Brouillard  Fortes neiges  Fortes précipitations  Vent > 20 kt
SIGMETs :   Divers  Orages  Givrage  Turbulence  Onde Orograph.  Cendres Volcan.







- Altitude de l'aérodrome : 74 ft
- Code IATA : EIN


EHEH - Eindhoven

DERNIER METAR :
  • 260355Z AUTO 24005KT 9999 FEW063 01/M01 Q1011 BLU

METARs EXPIRÉS :
  • 260325Z AUTO 24005KT 9999 SCT053 BKN058 01/M00 Q1011 BLU
  • 260255Z AUTO 23006KT 9999 // NCD M00/M02 Q1011 RE// BLU
  • 260225Z AUTO 22006KT 9999 // FEW022 SCT027 BKN052 00/M01 Q1011 RE//
  • 260159Z AUTO 21005KT 9999 // BKN024 BKN027 BKN045 00/M01 Q1011
  • 260125Z AUTO 22005KT 9999 // SCT036 00/M02 Q1011 RE//

TAF TAF EHEH
Valide du 26 à 00h jusqu'au 27 à 06h UTC


252358Z 2600/2706 21003KT CAVOK
PROB30
TEMPO 2602/2609 FEW020CB
BECMG 2607/2609 30008KT
TEMPO 2609/2619 33012KT SCT020CB BKN025
PROB40
TEMPO 2613/2618 33015G25KT 4000 SHRAGS TSRAGS FEW012 SCT015CB BKN020
PROB40 2703/2706 4000 BR MIFG
Pas de NOTAMs connus pour ce terrain.



MET'MAP, la Météo Aéronautique d'un coup d'oeil ! - Copyright ORBIFLY Décembre 2007 - Disclaimer

ORBIFLY MET'MAP TEAM :

Programmation & Développement : Alexandra Zaïnal
Conception & Développement : Baudouin d'Aumeries
Co-Programmation & Développement : Marc-Olivier Méhu
Soutien technique & logistique : Manuel Goepfert

Contact : metmap@orbifly.com




SOURCES & CREDITS :

   NOAA